createdAt,value
2022-10-03T00:02:13.313Z,0.50
2022-10-03T00:04:48.585Z,0.50
2022-10-03T00:07:57.183Z,0.50
2022-10-03T00:10:30.164Z,0.50
2022-10-03T00:13:14.613Z,0.50
2022-10-03T00:15:54.235Z,0.50
2022-10-03T00:19:02.306Z,0.50
2022-10-03T00:22:06.220Z,0.40
2022-10-03T00:24:54.141Z,0.40
2022-10-03T00:27:31.894Z,0.40
2022-10-03T00:30:10.527Z,0.40
2022-10-03T00:33:09.402Z,0.40
2022-10-03T00:35:49.533Z,0.40
2022-10-03T00:38:54.739Z,0.45
2022-10-03T00:41:58.879Z,0.50
2022-10-03T00:44:40.810Z,0.45
2022-10-03T00:47:45.350Z,0.40
2022-10-03T00:50:23.704Z,0.40
2022-10-03T00:53:30.870Z,0.40
2022-10-03T00:56:27.056Z,0.50
2022-10-03T00:59:13.654Z,0.43
2022-10-03T01:01:48.744Z,0.45
2022-10-03T01:04:39.609Z,0.50
2022-10-03T01:07:39.135Z,0.43
2022-10-03T01:10:06.022Z,0.50
2022-10-03T01:13:03.325Z,0.45
2022-10-03T01:15:42.767Z,0.40
2022-10-03T01:18:21.481Z,0.40
2022-10-03T01:21:29.429Z,0.40
2022-10-03T01:24:26.867Z,0.40
2022-10-03T01:26:57.512Z,0.50
2022-10-03T01:29:55.497Z,0.40
2022-10-03T01:32:33.592Z,0.50
2022-10-03T01:35:12.316Z,0.40
2022-10-03T01:38:02.097Z,0.40
2022-10-03T01:40:48.321Z,0.43
2022-10-03T01:43:21.250Z,0.40
2022-10-03T01:46:09.406Z,0.50
2022-10-03T01:48:45.522Z,0.40
2022-10-03T01:51:16.986Z,0.50
2022-10-03T01:53:47.015Z,0.50
2022-10-03T01:56:44.267Z,0.40
2022-10-03T01:59:22.127Z,0.40
2022-10-03T02:01:58.707Z,0.50
2022-10-03T02:04:44.427Z,0.45
2022-10-03T02:07:32.897Z,0.47
2022-10-03T02:09:59.730Z,0.40
2022-10-03T02:12:47.007Z,0.40
2022-10-03T02:15:17.389Z,0.40
2022-10-03T02:18:48.987Z,0.40
2022-10-03T02:21:21.613Z,0.40
2022-10-03T02:23:50.447Z,0.40
2022-10-03T02:26:48.370Z,0.30
2022-10-03T02:29:51.167Z,0.40
2022-10-03T02:32:47.554Z,0.40
2022-10-03T02:35:51.809Z,0.40
2022-10-03T02:38:32.438Z,0.40
2022-10-03T02:41:39.585Z,0.40
2022-10-03T02:44:28.289Z,0.40
2022-10-03T02:47:39.521Z,0.40
2022-10-03T02:50:15.635Z,0.50
2022-10-03T02:53:12.089Z,0.45
2022-10-03T02:55:58.207Z,0.40
2022-10-03T02:59:01.150Z,0.40
2022-10-03T03:01:33.733Z,0.40
2022-10-03T03:04:32.854Z,0.40
2022-10-03T03:07:21.179Z,0.40
2022-10-03T03:10:06.683Z,0.40
2022-10-03T03:12:58.936Z,0.40
2022-10-03T03:15:37.481Z,0.40
2022-10-03T03:18:44.660Z,0.40
2022-10-03T03:21:33.262Z,0.45
2022-10-03T03:24:18.467Z,0.40
2022-10-03T03:27:36.755Z,0.40
2022-10-03T03:30:21.553Z,0.40
2022-10-03T03:32:58.012Z,0.40
2022-10-03T03:35:49.463Z,0.40
2022-10-03T03:38:28.156Z,0.40
2022-10-03T03:40:55.138Z,0.40
2022-10-03T03:43:45.127Z,0.40
2022-10-03T03:46:21.168Z,0.50
2022-10-03T03:48:51.459Z,0.50
2022-10-03T03:51:41.752Z,0.40
2022-10-03T03:54:45.564Z,0.40
2022-10-03T03:57:16.259Z,0.40
2022-10-03T04:00:01.036Z,0.40
2022-10-03T04:03:21.311Z,0.40
2022-10-03T04:06:12.952Z,0.40
2022-10-03T04:09:01.073Z,0.40
2022-10-03T04:11:37.989Z,0.40
2022-10-03T04:14:36.265Z,0.40
2022-10-03T04:17:30.516Z,0.40
2022-10-03T04:20:10.017Z,0.40
2022-10-03T04:23:15.701Z,0.40
2022-10-03T04:29:03.043Z,0.40
2022-10-03T04:31:32.898Z,0.40
2022-10-03T04:34:31.217Z,0.43
2022-10-03T04:37:12.364Z,0.40
2022-10-03T04:40:04.877Z,0.40
2022-10-03T04:42:46.836Z,0.40
2022-10-03T04:45:35.644Z,0.40
2022-10-03T04:48:08.349Z,0.40
2022-10-03T04:50:42.508Z,0.40
2022-10-03T04:53:19.053Z,0.40
2022-10-03T04:55:51.776Z,0.40
2022-10-03T04:58:26.868Z,0.40
2022-10-03T05:01:47.633Z,0.40
2022-10-03T05:04:30.386Z,0.40
2022-10-03T05:07:20.249Z,0.40
2022-10-03T05:09:52.063Z,0.40
2022-10-03T05:12:31.976Z,0.40
2022-10-03T05:15:03.227Z,0.40
2022-10-03T05:18:02.231Z,0.40
2022-10-03T05:20:47.705Z,0.50
2022-10-03T05:23:42.514Z,0.40
2022-10-03T05:26:44.141Z,0.40
2022-10-03T05:29:17.931Z,0.40
2022-10-03T05:31:50.500Z,0.40
2022-10-03T05:34:45.704Z,0.40
2022-10-03T05:37:30.383Z,0.30
2022-10-03T05:40:03.572Z,0.40
2022-10-03T05:42:44.696Z,0.47
2022-10-03T05:45:32.888Z,0.40
2022-10-03T05:48:19.300Z,0.40
2022-10-03T05:51:13.598Z,0.40
2022-10-03T05:54:21.660Z,0.40
2022-10-03T05:57:12.406Z,0.40
2022-10-03T06:00:07.722Z,0.40
2022-10-03T06:02:54.457Z,0.35
2022-10-03T06:05:27.590Z,0.40
2022-10-03T06:08:12.419Z,0.40
2022-10-03T06:11:00.529Z,0.30
2022-10-03T06:14:24.585Z,0.40
2022-10-03T06:17:15.993Z,0.40
2022-10-03T06:19:52.729Z,0.40
2022-10-03T06:22:47.238Z,0.40
2022-10-03T06:25:35.132Z,0.40
2022-10-03T06:28:24.922Z,0.40
2022-10-03T06:30:58.012Z,0.40
2022-10-03T06:33:30.927Z,0.40
2022-10-03T06:36:20.706Z,0.40
2022-10-03T06:39:12.130Z,0.40
2022-10-03T06:41:42.965Z,0.40
2022-10-03T06:44:27.481Z,0.40
2022-10-03T06:46:57.343Z,0.40
2022-10-03T06:49:39.158Z,0.40
2022-10-03T06:52:33.806Z,0.40
2022-10-03T06:55:33.340Z,0.40
2022-10-03T06:58:36.507Z,0.40
2022-10-03T07:01:12.372Z,0.40
2022-10-03T07:04:13.133Z,0.40
2022-10-03T07:06:58.360Z,0.40
2022-10-03T07:10:06.324Z,0.40
2022-10-03T07:13:07.566Z,0.40
2022-10-03T07:16:25.034Z,0.40
2022-10-03T07:19:07.947Z,0.40
2022-10-03T07:22:13.503Z,0.50
2022-10-03T07:25:26.975Z,0.40
2022-10-03T07:28:01.068Z,0.40
2022-10-03T07:30:46.925Z,0.40
2022-10-03T07:33:44.713Z,0.50
2022-10-03T07:36:36.035Z,0.40
2022-10-03T07:39:27.415Z,0.50
2022-10-03T07:42:14.057Z,0.50
2022-10-03T07:44:59.176Z,0.50
2022-10-03T07:47:45.801Z,0.40
2022-10-03T07:50:37.489Z,0.40
2022-10-03T07:53:19.925Z,0.40
2022-10-03T07:56:09.358Z,0.50
2022-10-03T07:58:55.732Z,0.40
2022-10-03T08:01:48.908Z,0.47
2022-10-03T08:05:02.868Z,0.50
2022-10-03T08:07:47.209Z,0.50
2022-10-03T08:10:17.211Z,0.50
2022-10-03T08:13:02.646Z,0.50
2022-10-03T08:15:45.766Z,0.50
2022-10-03T08:18:37.128Z,0.50
2022-10-03T08:21:39.115Z,0.50
2022-10-03T08:24:27.604Z,0.50
2022-10-03T08:27:01.492Z,0.50
2022-10-03T08:29:47.108Z,0.50
2022-10-03T08:32:33.027Z,0.50
2022-10-03T08:35:21.519Z,0.50
2022-10-03T08:38:24.975Z,0.50
2022-10-03T08:41:00.768Z,0.50
2022-10-03T08:43:51.921Z,0.50
2022-10-03T08:46:38.099Z,0.47
2022-10-03T08:49:23.549Z,0.50
2022-10-03T08:51:53.561Z,0.50
2022-10-03T08:54:27.812Z,0.50
2022-10-03T08:57:06.388Z,0.40
2022-10-03T08:59:52.109Z,0.43
2022-10-03T09:02:31.387Z,0.50
2022-10-03T09:05:16.523Z,0.40
2022-10-03T09:08:04.254Z,0.50
2022-10-03T09:11:05.385Z,0.50
2022-10-03T09:13:58.499Z,0.50
2022-10-03T09:16:31.658Z,0.50
2022-10-03T09:19:01.338Z,0.50
2022-10-03T09:21:46.490Z,0.50
2022-10-03T09:24:42.392Z,0.50
2022-10-03T09:27:28.449Z,0.50
2022-10-03T09:30:21.374Z,0.50
2022-10-03T09:33:12.448Z,0.50
2022-10-03T09:36:00.688Z,0.50
2022-10-03T09:38:30.569Z,0.50
2022-10-03T09:41:41.225Z,0.40
2022-10-03T09:44:26.927Z,0.40
2022-10-03T09:47:18.575Z,0.50
2022-10-03T09:50:07.364Z,0.50
2022-10-03T09:53:09.337Z,0.40
2022-10-03T09:56:01.840Z,0.50
2022-10-03T09:58:56.190Z,0.50
2022-10-03T10:02:17.212Z,0.50
2022-10-03T10:04:55.729Z,0.50
2022-10-03T10:07:25.939Z,0.50
2022-10-03T10:10:30.435Z,0.50
2022-10-03T10:13:12.596Z,0.50
2022-10-03T10:15:59.843Z,0.50
2022-10-03T10:18:32.818Z,0.40
2022-10-03T10:21:37.120Z,0.50
2022-10-03T10:24:39.263Z,0.60
2022-10-03T10:27:08.875Z,0.50
2022-10-03T10:30:26.570Z,0.50
2022-10-03T10:33:02.384Z,0.60
2022-10-03T10:35:56.755Z,0.50
2022-10-03T10:38:40.017Z,0.50
2022-10-03T10:41:45.965Z,0.50
2022-10-03T10:44:35.956Z,0.50
2022-10-03T10:47:18.171Z,0.50
2022-10-03T10:50:12.998Z,0.50
2022-10-03T10:52:42.793Z,0.50
2022-10-03T10:55:37.079Z,0.50
2022-10-03T10:58:40.957Z,0.50
2022-10-03T11:01:46.099Z,0.60
2022-10-03T11:04:31.756Z,0.50
2022-10-03T11:07:28.719Z,0.50
2022-10-03T11:10:33.100Z,0.47
2022-10-03T11:13:22.554Z,0.50
2022-10-03T11:15:55.106Z,0.50
2022-10-03T11:18:28.228Z,0.60
2022-10-03T11:21:12.128Z,0.50
2022-10-03T11:24:06.789Z,0.55
2022-10-03T11:27:07.580Z,0.52
2022-10-03T11:30:03.337Z,0.50
2022-10-03T11:32:59.336Z,0.60
2022-10-03T11:35:53.019Z,0.60
2022-10-03T11:38:24.900Z,0.75
2022-10-03T11:41:10.020Z,0.60
2022-10-03T11:44:01.521Z,0.57
2022-10-03T11:46:54.890Z,0.52
2022-10-03T11:49:49.864Z,0.60
2022-10-03T11:52:34.750Z,0.50
2022-10-03T11:57:39.203Z,0.60
2022-10-03T12:00:27.215Z,0.60
2022-10-03T12:03:04.655Z,0.60
2022-10-03T12:06:14.647Z,0.55
2022-10-03T12:08:55.150Z,0.60
2022-10-03T12:11:33.857Z,0.60
2022-10-03T12:14:11.721Z,0.53
2022-10-03T12:17:16.080Z,0.50
2022-10-03T12:20:22.502Z,0.50
2022-10-03T12:22:55.078Z,0.50
2022-10-03T12:25:24.098Z,0.50
2022-10-03T12:28:15.518Z,0.60
2022-10-03T12:30:57.698Z,0.60
2022-10-03T12:33:37.819Z,0.60
2022-10-03T12:36:33.756Z,0.70
2022-10-03T12:39:16.669Z,0.70
2022-10-03T12:42:01.647Z,0.70
2022-10-03T12:44:59.960Z,0.60
2022-10-03T12:47:51.029Z,0.60
2022-10-03T12:50:59.596Z,0.60
2022-10-03T12:53:26.587Z,0.50
2022-10-03T12:56:07.519Z,0.50
2022-10-03T12:58:49.290Z,0.55
2022-10-03T13:01:22.310Z,0.50
2022-10-03T13:04:18.596Z,0.60
2022-10-03T13:07:13.640Z,0.60
2022-10-03T13:10:14.304Z,0.70
2022-10-03T13:12:51.442Z,1.20
2022-10-03T13:15:54.112Z,1.10
2022-10-03T13:18:30.459Z,0.70
2022-10-03T13:20:57.346Z,0.60
2022-10-03T13:23:41.503Z,0.50
2022-10-03T13:26:42.449Z,0.50
2022-10-03T13:29:25.308Z,0.50
2022-10-03T13:32:27.591Z,0.50
2022-10-03T13:35:41.748Z,0.60
2022-10-03T13:38:48.070Z,0.60
2022-10-03T13:41:17.988Z,0.60
2022-10-03T13:43:50.336Z,0.60
2022-10-03T13:46:24.072Z,0.60
2022-10-03T13:49:02.608Z,0.70
2022-10-03T13:51:57.315Z,0.60
2022-10-03T13:54:39.466Z,0.70
2022-10-03T13:57:17.270Z,0.70
2022-10-03T14:00:01.139Z,1.05
2022-10-03T14:02:36.835Z,0.63
2022-10-03T14:05:13.167Z,0.50
2022-10-03T14:08:03.123Z,0.50
2022-10-03T14:10:51.043Z,0.60
2022-10-03T14:13:37.329Z,0.60
2022-10-03T14:16:33.028Z,0.50
2022-10-03T14:19:50.148Z,0.60
2022-10-03T14:22:38.280Z,0.60
2022-10-03T14:25:24.460Z,0.60
2022-10-03T14:27:52.643Z,0.60
2022-10-03T14:30:31.429Z,0.60
2022-10-03T14:33:00.296Z,0.50
2022-10-03T14:35:54.124Z,0.60
2022-10-03T14:39:07.284Z,0.60
2022-10-03T14:41:53.495Z,0.60
2022-10-03T14:44:48.048Z,0.60
2022-10-03T14:47:19.802Z,0.60
2022-10-03T14:49:59.392Z,0.60
2022-10-03T14:52:39.059Z,0.70
2022-10-03T14:55:29.936Z,0.60
2022-10-03T14:58:10.756Z,0.60
2022-10-03T15:00:46.835Z,0.60
2022-10-03T15:03:21.133Z,0.60
2022-10-03T15:05:57.197Z,0.60
2022-10-03T15:08:30.457Z,0.60
2022-10-03T15:10:57.793Z,0.60
2022-10-03T15:13:25.383Z,0.60
2022-10-03T15:15:55.482Z,0.60
2022-10-03T15:18:24.364Z,0.60
2022-10-03T15:20:55.768Z,0.60
2022-10-03T15:23:39.269Z,0.60
2022-10-03T15:26:13.113Z,0.60
2022-10-03T15:28:53.864Z,0.70
2022-10-03T15:31:32.738Z,0.60
2022-10-03T15:34:02.131Z,0.60
2022-10-03T15:36:32.682Z,0.60
2022-10-03T15:39:02.516Z,0.57
2022-10-03T15:42:04.685Z,0.60
2022-10-03T15:44:39.229Z,0.60
2022-10-03T15:47:14.129Z,0.60
2022-10-03T15:50:00.642Z,0.60
2022-10-03T15:52:40.355Z,0.60
2022-10-03T15:55:14.300Z,0.60
2022-10-03T15:57:49.899Z,0.60
2022-10-03T16:00:24.685Z,0.60
2022-10-03T16:05:25.093Z,0.68
2022-10-03T16:07:55.296Z,0.60
2022-10-03T16:10:33.933Z,0.60
2022-10-03T16:13:16.038Z,0.60
2022-10-03T16:15:51.946Z,0.60
2022-10-03T16:18:19.492Z,0.60
2022-10-03T16:20:58.026Z,0.60
2022-10-03T16:23:29.738Z,0.60
2022-10-03T16:25:59.844Z,0.60
2022-10-03T16:28:44.570Z,0.50
2022-10-03T16:31:19.664Z,0.60
2022-10-03T16:33:57.212Z,0.60
2022-10-03T16:36:26.058Z,0.60
2022-10-03T16:38:59.450Z,0.70
2022-10-03T16:41:32.085Z,0.70
2022-10-03T16:44:00.998Z,0.60
2022-10-03T16:46:33.906Z,0.60
2022-10-03T16:49:21.585Z,0.60
2022-10-03T16:52:24.333Z,0.60
2022-10-03T16:54:59.683Z,0.60
2022-10-03T16:57:34.160Z,0.60
2022-10-03T17:00:07.955Z,0.60
2022-10-03T17:02:37.720Z,0.60
2022-10-03T17:05:07.751Z,0.60
2022-10-03T17:07:44.155Z,0.60
2022-10-03T17:10:40.478Z,0.55
2022-10-03T17:13:19.056Z,0.60
2022-10-03T17:16:17.093Z,0.60
2022-10-03T17:18:49.479Z,0.60
2022-10-03T17:21:19.295Z,0.60
2022-10-03T17:23:58.025Z,0.60
2022-10-03T17:26:33.349Z,0.60
2022-10-03T17:29:33.882Z,0.60
2022-10-03T17:32:22.223Z,0.60
2022-10-03T17:35:18.753Z,0.60
2022-10-03T17:38:19.661Z,0.60
2022-10-03T17:41:24.303Z,0.60
2022-10-03T17:44:28.369Z,0.60
2022-10-03T17:46:58.610Z,0.70
2022-10-03T17:49:43.207Z,0.70
2022-10-03T17:52:21.066Z,0.70
2022-10-03T17:54:51.871Z,0.70
2022-10-03T17:57:27.062Z,0.60
2022-10-03T18:00:00.386Z,0.60
2022-10-03T18:02:38.509Z,0.70
2022-10-03T18:05:28.063Z,0.60
2022-10-03T18:08:06.120Z,0.60
2022-10-03T18:10:38.587Z,0.60
2022-10-03T18:13:18.645Z,0.70
2022-10-03T18:16:01.032Z,0.60
2022-10-03T18:18:49.507Z,0.60
2022-10-03T18:21:54.644Z,0.60
2022-10-03T18:24:46.888Z,0.63
2022-10-03T18:27:27.167Z,0.55
2022-10-03T18:29:56.497Z,0.60
2022-10-03T18:32:29.714Z,0.70
2022-10-03T18:35:28.880Z,0.70
2022-10-03T18:38:04.733Z,0.60
2022-10-03T18:40:36.996Z,0.70
2022-10-03T18:43:06.021Z,0.60
2022-10-03T18:45:44.294Z,0.60
2022-10-03T18:48:21.055Z,0.60
2022-10-03T18:50:51.931Z,0.60
2022-10-03T18:53:24.193Z,0.60
2022-10-03T18:56:06.289Z,0.60
2022-10-03T18:58:37.181Z,0.60
2022-10-03T19:01:34.080Z,0.55
2022-10-03T19:04:06.112Z,0.60
2022-10-03T19:06:38.027Z,0.60
2022-10-03T19:09:16.073Z,0.60
2022-10-03T19:11:52.022Z,0.70
2022-10-03T19:14:57.014Z,0.60
2022-10-03T19:17:49.403Z,0.70
2022-10-03T19:20:27.209Z,0.60
2022-10-03T19:23:09.815Z,0.60
2022-10-03T19:25:39.238Z,0.70
2022-10-03T19:28:14.754Z,0.60
2022-10-03T19:30:43.385Z,0.60
2022-10-03T19:33:22.961Z,0.60
2022-10-03T19:35:55.757Z,0.60
2022-10-03T19:38:27.764Z,0.60
2022-10-03T19:40:55.940Z,0.60
2022-10-03T19:43:31.837Z,0.60
2022-10-03T19:46:34.572Z,0.60
2022-10-03T19:49:25.167Z,0.60
2022-10-03T19:51:52.757Z,0.60
2022-10-03T19:54:32.938Z,0.60
2022-10-03T19:57:03.068Z,0.60
2022-10-03T19:59:50.745Z,0.60
2022-10-03T20:02:22.621Z,0.50
2022-10-03T20:05:08.365Z,0.60
2022-10-03T20:07:46.681Z,0.60
2022-10-03T20:10:25.537Z,0.60
2022-10-03T20:12:52.897Z,0.60
2022-10-03T20:15:26.324Z,0.60
2022-10-03T20:18:02.713Z,0.60
2022-10-03T20:20:31.311Z,0.60
2022-10-03T20:23:03.979Z,0.50
2022-10-03T20:25:39.987Z,0.60
2022-10-03T20:28:18.519Z,0.60
2022-10-03T20:30:52.645Z,0.60
2022-10-03T20:33:26.098Z,0.60
2022-10-03T20:35:58.701Z,0.55
2022-10-03T20:38:47.605Z,0.60
2022-10-03T20:41:47.160Z,0.60
2022-10-03T20:44:48.172Z,0.60
2022-10-03T20:47:18.196Z,0.60
2022-10-03T20:49:50.493Z,0.50
2022-10-03T20:52:19.895Z,0.60
2022-10-03T20:54:51.963Z,0.50
2022-10-03T20:57:24.889Z,0.60
2022-10-03T21:00:09.586Z,0.60
2022-10-03T21:05:22.361Z,0.60
2022-10-03T21:07:54.506Z,0.55
2022-10-03T21:10:26.768Z,0.60
2022-10-03T21:13:16.189Z,0.60
2022-10-03T21:15:53.875Z,0.60
2022-10-03T21:18:25.384Z,0.60
2022-10-03T21:21:10.626Z,0.60
2022-10-03T21:24:03.171Z,0.60
2022-10-03T21:26:57.063Z,0.60
2022-10-03T21:29:23.976Z,0.60
2022-10-03T21:32:09.263Z,0.60
2022-10-03T21:37:13.196Z,0.60
2022-10-03T21:39:56.508Z,0.70
2022-10-03T21:42:38.316Z,0.60
2022-10-03T21:45:32.957Z,0.60
2022-10-03T21:48:13.547Z,0.60
2022-10-03T21:50:45.377Z,0.60
2022-10-03T21:53:18.931Z,0.50
2022-10-03T21:56:28.062Z,0.60
2022-10-03T21:59:32.702Z,0.60
2022-10-03T22:02:08.904Z,0.60
2022-10-03T22:05:08.510Z,0.70
2022-10-03T22:07:38.341Z,0.60
2022-10-03T22:10:27.987Z,0.60
2022-10-03T22:13:00.549Z,0.60
2022-10-03T22:15:34.234Z,0.60
2022-10-03T22:18:05.504Z,0.60
2022-10-03T22:20:34.056Z,0.60
2022-10-03T22:23:19.023Z,0.60
2022-10-03T22:26:07.265Z,0.60
2022-10-03T22:28:55.237Z,0.60
2022-10-03T22:31:52.156Z,0.60
2022-10-03T22:34:40.054Z,0.60
2022-10-03T22:37:07.113Z,0.60
2022-10-03T22:39:35.615Z,0.50
2022-10-03T22:42:03.858Z,0.60
2022-10-03T22:44:33.301Z,0.50
2022-10-03T22:47:09.495Z,0.60
2022-10-03T22:49:40.386Z,0.50
2022-10-03T22:52:11.440Z,0.60
2022-10-03T22:54:39.995Z,0.60
2022-10-03T22:57:09.166Z,0.60
2022-10-03T22:59:47.900Z,0.60
2022-10-03T23:02:15.991Z,0.60
2022-10-03T23:04:57.987Z,0.60
2022-10-03T23:07:49.459Z,0.50
2022-10-03T23:10:40.821Z,0.60
2022-10-03T23:13:15.569Z,0.57
2022-10-03T23:18:15.855Z,0.60
2022-10-03T23:21:07.521Z,0.60
2022-10-03T23:23:56.659Z,0.50
2022-10-03T23:26:48.520Z,0.55
2022-10-03T23:29:20.395Z,0.50
2022-10-03T23:31:58.969Z,0.60
2022-10-03T23:34:37.854Z,0.60
2022-10-03T23:37:14.204Z,0.50
2022-10-03T23:40:07.264Z,0.50
2022-10-03T23:42:44.689Z,0.60
2022-10-03T23:45:17.030Z,0.60
2022-10-03T23:47:52.123Z,0.50
2022-10-03T23:50:23.371Z,0.60
2022-10-03T23:52:54.497Z,0.60
2022-10-03T23:55:26.155Z,0.60
2022-10-03T23:57:56.620Z,0.60
